Terminal Aerodrome Forecast
Issued by NWS

Home | Current Version | Previous Version | Text Only | Print | Product List | Glossary On
Versions: 1 2 3 4 5 6 7 8 9 10 11 12 13 14 15 16 17 18 19 20
000
FTUS45 KSLC 242340
TAFOGD
TAF
KOGD 242340Z 2500/2524 27007KT P6SM SCT070 BKN120
     FM250200 17007KT P6SM BKN120
     FM251800 21010KT P6SM VCSH SCT060 BKN100
     FM252200 32009KT P6SM -SHRA SCT040 BKN070=

USA.gov is the U.S. government's official web portal to all federal, state and local government web resources and services.